Weather at Fjällbacka Anra Airport

Public forecast

Using degrees Celsius for public forecast. Weather courtesy of forecast.io.

Closest aviation weather report (METAR) to Fjällbacka Anra Airport

Closest report is Trollhättan-Vänersborg Airport, 37.4 nm (69.2 km) ESE. Retrieved 2022/06/29 00:20 UTC (9 minutes ago):

ESGT 290020Z AUTO 16004KT 9999 NCD 11/09 Q1021

Closest aviation forecast (TAF) to Fjällbacka Anra Airport

Forecast is more than 12 hours old.

Closest forecast is Trollhättan-Vänersborg Airport, 37.4 nm (69.2 km) ESE. Retrieved 2015/08/24 04:37 UTC (7 years ago):

TAF ESGT 240330Z 2404/2424 02008KT CAVOK